General Aviation Weather

Text Reports

Enter one or more of the following location identifiers separated by a space:

Zip Code, Four-Character ICAO or Three-Character IATA airport codes.

METAR - Aviation Routine Weather Report
KUTA - Tunica, Mississippi
Updated at 2:35 AM GMT on August 31, 2014 (9:35 PM CDT):
METAR KUTA 310235Z AUTO 14007KT 10SM SCT006 BKN010 BKN014 22/21 A3000 RMK AO2
TAF - Terminal Area Forecast
KUTA - Tunica, Mississippi
Updated at 2:35 AM GMT on August 31, 2014 (9:35 PM CDT):
No TAF is currently available for this location.
Decoded:
No decoded TAF is available.
PIREP - Pilot Weather Report
KUTA - Tunica, Mississippi
Updated at 2:35 AM GMT on August 31, 2014 (9:35 PM CDT):
No PIREP is currently available for this location.
AIRMET - Airmens Meteorological Information
KUTA - Tunica, Mississippi
Updated at 2:35 AM GMT on August 31, 2014 (9:35 PM CDT):
No AIRMET is currently available for this location.
SIGMET - Significant Meteorological Information
KUTA - Tunica, Mississippi
Updated at 2:35 AM GMT on August 31, 2014 (9:35 PM CDT):
No SIGMET is currently available for this location.
NOTAM - Notice to Airmen
KUTA - Tunica, Mississippi
Updated at 2:35 AM GMT on August 31, 2014 (9:35 PM CDT):
No NOTAM is currently available for this location.
Forecast Area
KUTA - Tunica, Mississippi
Updated at 2:35 AM GMT on August 31, 2014 (9:35 PM CDT):
No NOTAM is currently available for this location.
Aviation Weather Maps